createdAt,value
2023-05-02T00:01:19.583Z,7.50
2023-05-02T00:03:46.246Z,7.17
2023-05-02T00:06:13.022Z,7.13
2023-05-02T00:08:39.582Z,7.23
2023-05-02T00:11:06.025Z,7.73
2023-05-02T00:13:32.366Z,8.00
2023-05-02T00:15:58.827Z,7.80
2023-05-02T00:18:25.246Z,8.17
2023-05-02T00:20:51.695Z,8.20
2023-05-02T00:23:18.224Z,8.43
2023-05-02T00:25:46.093Z,8.23
2023-05-02T00:28:13.690Z,8.80
2023-05-02T00:30:46.945Z,8.77
2023-05-02T00:33:14.834Z,8.87
2023-05-02T00:35:41.793Z,8.80
2023-05-02T00:38:08.937Z,9.03
2023-05-02T00:40:46.052Z,8.67
2023-05-02T00:43:12.653Z,9.33
2023-05-02T00:45:43.322Z,9.27
2023-05-02T00:48:10.556Z,8.23
2023-05-02T00:50:41.883Z,9.10
2023-05-02T00:53:09.673Z,9.27
2023-05-02T00:55:36.494Z,9.07
2023-05-02T00:58:14.132Z,8.87
2023-05-02T01:00:56.672Z,8.93
2023-05-02T01:03:39.627Z,8.67
2023-05-02T01:06:16.798Z,8.90
2023-05-02T01:08:55.975Z,9.27
2023-05-02T01:11:57.686Z,8.70
2023-05-02T01:14:28.290Z,8.80
2023-05-02T01:16:58.060Z,10.20
2023-05-02T01:19:34.422Z,9.30
2023-05-02T01:22:04.822Z,10.60
2023-05-02T01:24:58.705Z,12.17
2023-05-02T01:27:36.834Z,18.57
2023-05-02T01:30:04.970Z,28.33
2023-05-02T01:32:34.523Z,33.50
2023-05-02T01:35:02.343Z,31.87
2023-05-02T01:37:30.846Z,32.43
2023-05-02T01:39:59.541Z,33.20
2023-05-02T01:42:26.792Z,32.33
2023-05-02T01:44:56.395Z,34.50
2023-05-02T01:47:24.205Z,33.17
2023-05-02T01:49:52.997Z,32.37
2023-05-02T01:52:22.909Z,33.20
2023-05-02T01:54:51.247Z,33.63
2023-05-02T01:57:18.841Z,34.47
2023-05-02T01:59:47.515Z,33.53
2023-05-02T02:02:14.406Z,34.37
2023-05-02T02:04:42.512Z,34.43
2023-05-02T02:07:12.229Z,33.50
2023-05-02T02:09:38.934Z,35.00
2023-05-02T02:12:14.088Z,34.50
2023-05-02T02:14:46.247Z,36.23
2023-05-02T02:17:16.431Z,34.73
2023-05-02T02:19:44.055Z,35.13
2023-05-02T02:22:13.519Z,36.37
2023-05-02T02:24:41.033Z,37.43
2023-05-02T02:27:07.392Z,35.10
2023-05-02T02:29:33.731Z,37.70
2023-05-02T02:32:00.148Z,35.00
2023-05-02T02:34:26.526Z,35.07
2023-05-02T02:37:01.806Z,35.47
2023-05-02T02:40:05.397Z,36.83
2023-05-02T02:42:56.363Z,35.10
2023-05-02T02:45:32.692Z,35.37
2023-05-02T02:48:19.581Z,35.00
2023-05-02T02:51:22.328Z,35.37
2023-05-02T02:54:15.412Z,35.03
2023-05-02T02:56:59.401Z,35.47
2023-05-02T02:59:32.687Z,35.17
2023-05-02T03:02:08.114Z,34.70
2023-05-02T03:04:38.797Z,33.53
2023-05-02T03:07:05.362Z,33.53
2023-05-02T03:09:45.409Z,34.80
2023-05-02T03:12:12.078Z,32.77
2023-05-02T03:14:38.966Z,32.57
2023-05-02T03:17:05.833Z,32.50
2023-05-02T03:19:32.281Z,32.87
2023-05-02T03:21:58.654Z,30.10
2023-05-02T03:24:27.533Z,32.27
2023-05-02T03:26:59.009Z,33.17
2023-05-02T03:29:26.468Z,31.33
2023-05-02T03:31:52.973Z,30.80
2023-05-02T03:34:21.861Z,30.10
2023-05-02T03:36:48.248Z,30.60
2023-05-02T03:39:15.229Z,30.80
2023-05-02T03:41:42.396Z,30.27
2023-05-02T03:44:08.770Z,30.70
2023-05-02T03:46:36.472Z,29.77
2023-05-02T03:49:02.959Z,31.30
2023-05-02T03:51:29.274Z,30.13
2023-05-02T03:53:55.736Z,32.33
2023-05-02T03:56:22.062Z,30.77
2023-05-02T03:58:49.108Z,30.80
2023-05-02T04:01:16.789Z,30.90
2023-05-02T04:03:43.572Z,30.40
2023-05-02T04:06:10.412Z,31.17
2023-05-02T04:08:37.182Z,32.03
2023-05-02T04:11:03.807Z,33.70
2023-05-02T04:13:30.306Z,31.90
2023-05-02T04:15:56.746Z,29.60
2023-05-02T04:18:23.129Z,30.53
2023-05-02T04:20:50.277Z,28.80
2023-05-02T04:23:17.539Z,30.83
2023-05-02T04:25:54.252Z,30.50
2023-05-02T04:28:22.104Z,29.53
2023-05-02T04:30:50.004Z,29.50
2023-05-02T04:33:18.126Z,30.60
2023-05-02T04:35:44.771Z,30.13
2023-05-02T04:38:11.149Z,30.37
2023-05-02T04:40:37.586Z,31.73
2023-05-02T04:43:04.055Z,32.27
2023-05-02T04:45:30.382Z,30.53
2023-05-02T04:47:56.788Z,30.33
2023-05-02T04:50:23.238Z,31.17
2023-05-02T04:52:50.040Z,32.17
2023-05-02T04:55:16.430Z,32.90
2023-05-02T04:57:43.091Z,30.30
2023-05-02T05:00:09.930Z,32.77
2023-05-02T05:02:36.490Z,31.13
2023-05-02T05:05:03.129Z,30.40
2023-05-02T05:07:29.511Z,30.73
2023-05-02T05:09:56.019Z,30.13
2023-05-02T05:12:22.502Z,29.87
2023-05-02T05:14:50.582Z,29.47
2023-05-02T05:17:17.196Z,29.63
2023-05-02T05:19:43.700Z,30.50
2023-05-02T05:22:10.082Z,26.87
2023-05-02T05:24:36.639Z,27.40
2023-05-02T05:27:03.105Z,28.30
2023-05-02T05:29:32.755Z,26.33
2023-05-02T05:31:59.325Z,26.93
2023-05-02T05:34:26.713Z,27.50
2023-05-02T05:36:53.145Z,25.93
2023-05-02T05:39:19.654Z,26.00
2023-05-02T05:41:46.390Z,25.73
2023-05-02T05:44:12.847Z,27.53
2023-05-02T05:46:39.353Z,27.20
2023-05-02T05:49:06.377Z,25.17
2023-05-02T05:51:32.788Z,25.07
2023-05-02T05:53:59.199Z,26.53
2023-05-02T05:56:25.558Z,23.93
2023-05-02T05:58:52.183Z,24.60
2023-05-02T06:01:18.559Z,25.07
2023-05-02T06:03:45.023Z,24.67
2023-05-02T06:06:11.646Z,24.90
2023-05-02T06:08:37.974Z,24.80
2023-05-02T06:11:08.749Z,23.73
2023-05-02T06:13:35.286Z,24.23
2023-05-02T06:16:02.623Z,23.70
2023-05-02T06:18:29.003Z,23.50
2023-05-02T06:20:55.407Z,24.60
2023-05-02T06:23:21.912Z,24.83
2023-05-02T06:25:48.211Z,24.23
2023-05-02T06:28:14.581Z,25.30
2023-05-02T06:30:41.091Z,23.93
2023-05-02T06:33:07.529Z,24.27
2023-05-02T06:35:34.188Z,24.30
2023-05-02T06:38:00.635Z,25.23
2023-05-02T06:40:27.064Z,24.10
2023-05-02T06:42:53.633Z,24.63
2023-05-02T06:45:20.019Z,23.97
2023-05-02T06:47:46.457Z,23.17
2023-05-02T06:50:13.011Z,23.83
2023-05-02T06:52:39.416Z,22.23
2023-05-02T06:55:06.295Z,22.37
2023-05-02T06:57:33.197Z,23.13
2023-05-02T06:59:59.738Z,23.23
2023-05-02T07:02:26.305Z,21.90
2023-05-02T07:04:53.208Z,21.93
2023-05-02T07:07:21.929Z,25.13
2023-05-02T07:09:48.588Z,23.87
2023-05-02T07:12:15.050Z,21.27
2023-05-02T07:14:41.430Z,21.27
2023-05-02T07:17:08.474Z,21.57
2023-05-02T07:19:34.961Z,19.87
2023-05-02T07:22:01.305Z,19.87
2023-05-02T07:24:27.662Z,20.73
2023-05-02T07:26:54.166Z,19.40
2023-05-02T07:29:20.615Z,19.70
2023-05-02T07:31:47.084Z,19.13
2023-05-02T07:34:13.593Z,18.50
2023-05-02T07:36:40.008Z,15.83
2023-05-02T07:39:07.896Z,10.70
2023-05-02T07:41:34.307Z,8.80
2023-05-02T07:44:00.898Z,8.00
2023-05-02T07:46:27.335Z,7.97
2023-05-02T07:48:54.136Z,8.30
2023-05-02T07:51:21.578Z,7.93
2023-05-02T07:53:51.785Z,8.83
2023-05-02T07:56:18.214Z,7.33
2023-05-02T07:58:44.504Z,6.63
2023-05-02T08:01:11.603Z,7.40
2023-05-02T08:03:38.107Z,5.90
2023-05-02T08:06:04.760Z,6.30
2023-05-02T08:08:31.074Z,6.23
2023-05-02T08:10:57.527Z,6.07
2023-05-02T08:13:23.917Z,5.43
2023-05-02T08:15:50.736Z,4.83
2023-05-02T08:18:17.176Z,5.20
2023-05-02T08:20:43.562Z,5.27
2023-05-02T08:23:10.586Z,5.10
2023-05-02T08:25:37.079Z,5.23
2023-05-02T08:28:03.565Z,5.40
2023-05-02T08:30:30.050Z,5.80
2023-05-02T08:32:56.582Z,6.23
2023-05-02T08:35:23.017Z,6.20
2023-05-02T08:37:49.408Z,6.97
2023-05-02T08:40:22.107Z,6.93
2023-05-02T08:42:57.349Z,5.77
2023-05-02T08:45:24.794Z,7.53
2023-05-02T08:47:52.574Z,7.80
2023-05-02T08:50:19.673Z,8.17
2023-05-02T08:52:47.213Z,8.67
2023-05-02T08:55:14.050Z,9.20
2023-05-02T08:57:41.311Z,8.57
2023-05-02T09:00:08.683Z,8.10
2023-05-02T09:03:04.745Z,8.80
2023-05-02T09:05:36.734Z,8.70
2023-05-02T09:08:03.213Z,8.93
2023-05-02T09:10:31.187Z,9.00
2023-05-02T09:12:57.604Z,9.87
2023-05-02T09:15:23.911Z,9.83
2023-05-02T09:17:50.414Z,8.77
2023-05-02T09:20:17.017Z,6.87
2023-05-02T09:22:51.580Z,5.40
2023-05-02T09:25:19.863Z,5.10
2023-05-02T09:27:56.816Z,4.10
2023-05-02T09:30:25.560Z,4.60
2023-05-02T09:32:55.034Z,4.37
2023-05-02T09:35:24.748Z,4.63
2023-05-02T09:37:55.974Z,3.60
2023-05-02T09:40:23.343Z,3.80
2023-05-02T09:42:50.686Z,3.77
2023-05-02T09:45:25.590Z,3.23
2023-05-02T09:47:52.900Z,3.20
2023-05-02T09:50:34.782Z,3.27
2023-05-02T09:53:09.669Z,3.83
2023-05-02T09:55:36.351Z,4.20
2023-05-02T09:58:03.360Z,4.20
2023-05-02T10:00:59.569Z,4.47
2023-05-02T10:03:28.068Z,4.30
2023-05-02T10:05:55.816Z,4.57
2023-05-02T10:08:27.432Z,5.20
2023-05-02T10:10:56.316Z,5.07
2023-05-02T10:13:27.329Z,5.47
2023-05-02T10:16:00.620Z,5.77
2023-05-02T10:19:06.535Z,6.60
2023-05-02T10:21:34.434Z,6.47
2023-05-02T10:24:03.491Z,6.20
2023-05-02T10:26:30.732Z,6.17
2023-05-02T10:28:57.223Z,6.47
2023-05-02T10:31:24.490Z,6.20
2023-05-02T10:33:51.804Z,6.20
2023-05-02T10:36:21.874Z,7.00
2023-05-02T10:38:48.926Z,6.80
2023-05-02T10:41:37.756Z,6.63
2023-05-02T10:44:07.675Z,5.37
2023-05-02T10:46:36.368Z,5.07
2023-05-02T10:49:06.988Z,4.53
2023-05-02T10:51:34.559Z,5.00
2023-05-02T10:54:20.015Z,5.00
2023-05-02T10:57:05.830Z,4.87
2023-05-02T10:59:37.270Z,4.63
2023-05-02T11:02:07.233Z,4.47
2023-05-02T11:05:06.295Z,5.00
2023-05-02T11:07:34.553Z,5.77
2023-05-02T11:10:22.316Z,6.03
2023-05-02T11:12:49.705Z,5.97
2023-05-02T11:15:41.853Z,5.33
2023-05-02T11:18:13.078Z,4.80
2023-05-02T11:20:44.847Z,4.30
2023-05-02T11:23:18.140Z,5.23
2023-05-02T11:25:46.845Z,5.17
2023-05-02T11:28:38.334Z,4.90
2023-05-02T11:31:06.320Z,4.57
2023-05-02T11:33:32.878Z,4.57
2023-05-02T11:35:59.364Z,4.70
2023-05-02T11:38:34.937Z,4.70
2023-05-02T11:41:02.845Z,4.83
2023-05-02T11:43:31.879Z,3.80
2023-05-02T11:46:00.199Z,4.23
2023-05-02T11:48:27.674Z,3.60
2023-05-02T11:51:02.056Z,3.10
2023-05-02T11:53:29.370Z,3.87
2023-05-02T11:55:57.938Z,3.40
2023-05-02T11:58:33.463Z,3.50
2023-05-02T12:01:13.242Z,3.20
2023-05-02T12:03:39.930Z,3.47
2023-05-02T12:06:14.553Z,3.80
2023-05-02T12:08:43.821Z,3.57
2023-05-02T12:11:13.557Z,3.80
2023-05-02T12:13:50.486Z,4.40
2023-05-02T12:16:18.145Z,3.87
2023-05-02T12:18:45.223Z,3.50
2023-05-02T12:21:12.074Z,3.70
2023-05-02T12:23:39.909Z,3.93
2023-05-02T12:26:25.570Z,3.80
2023-05-02T12:28:54.480Z,3.70
2023-05-02T12:31:21.786Z,3.73
2023-05-02T12:33:50.237Z,3.87
2023-05-02T12:36:17.649Z,3.67
2023-05-02T12:38:57.073Z,3.30
2023-05-02T12:41:37.353Z,3.63
2023-05-02T12:44:04.936Z,3.60
2023-05-02T12:46:31.986Z,3.77
2023-05-02T12:49:06.355Z,4.23
2023-05-02T12:51:32.982Z,3.83
2023-05-02T12:53:59.404Z,3.60
2023-05-02T12:56:31.993Z,3.93
2023-05-02T12:59:04.223Z,3.80
2023-05-02T13:01:32.558Z,4.20
2023-05-02T13:03:59.044Z,3.90
2023-05-02T13:06:25.990Z,3.93
2023-05-02T13:08:52.440Z,4.30
2023-05-02T13:11:19.363Z,4.53
2023-05-02T13:13:45.840Z,3.83
2023-05-02T13:16:12.495Z,4.37
2023-05-02T13:18:39.059Z,4.07
2023-05-02T13:21:05.735Z,5.00
2023-05-02T13:23:32.092Z,4.33
2023-05-02T13:25:58.985Z,4.80
2023-05-02T13:28:25.864Z,4.40
2023-05-02T13:30:52.418Z,4.50
2023-05-02T13:33:19.185Z,4.23
2023-05-02T13:35:46.360Z,5.20
2023-05-02T13:38:12.758Z,5.17
2023-05-02T13:40:39.136Z,5.20
2023-05-02T13:43:05.675Z,3.90
2023-05-02T13:45:32.232Z,4.60
2023-05-02T13:47:58.622Z,5.40
2023-05-02T13:50:25.031Z,4.73
2023-05-02T13:52:51.587Z,4.73
2023-05-02T13:55:18.218Z,5.00
2023-05-02T13:57:44.887Z,4.97
2023-05-02T14:00:12.048Z,5.00
2023-05-02T14:02:39.002Z,5.03
2023-05-02T14:05:06.164Z,5.70
2023-05-02T14:07:33.442Z,4.83
2023-05-02T14:10:00.194Z,4.03
2023-05-02T14:12:26.895Z,4.70
2023-05-02T14:14:53.600Z,5.10
2023-05-02T14:17:20.046Z,4.60
2023-05-02T14:19:46.370Z,4.43
2023-05-02T14:22:12.761Z,4.20
2023-05-02T14:24:39.139Z,3.77
2023-05-02T14:27:07.574Z,4.23
2023-05-02T14:29:33.883Z,4.37
2023-05-02T14:32:00.518Z,4.20
2023-05-02T14:34:27.210Z,3.70
2023-05-02T14:36:53.653Z,4.33
2023-05-02T14:39:20.232Z,4.50
2023-05-02T14:41:46.687Z,3.93
2023-05-02T14:44:13.050Z,4.17
2023-05-02T14:46:39.776Z,4.30
2023-05-02T14:49:06.429Z,4.30
2023-05-02T14:51:32.800Z,4.10
2023-05-02T14:53:59.183Z,3.87
2023-05-02T14:56:25.790Z,4.00
2023-05-02T14:58:52.144Z,4.07
2023-05-02T15:01:20.361Z,3.93
2023-05-02T15:04:04.395Z,4.20
2023-05-02T15:06:32.637Z,4.00
2023-05-02T15:08:59.259Z,4.53
2023-05-02T15:11:25.896Z,3.90
2023-05-02T15:13:52.332Z,4.47
2023-05-02T15:16:18.829Z,3.67
2023-05-02T15:18:45.488Z,3.67
2023-05-02T15:21:12.028Z,3.30
2023-05-02T15:23:38.369Z,4.53
2023-05-02T15:26:04.806Z,3.80
2023-05-02T15:28:31.202Z,3.77
2023-05-02T15:30:57.620Z,3.77
2023-05-02T15:33:23.971Z,3.73
2023-05-02T15:35:55.513Z,3.53
2023-05-02T15:38:22.244Z,4.00
2023-05-02T15:40:57.698Z,3.53
2023-05-02T15:43:24.467Z,3.40
2023-05-02T15:45:52.795Z,3.67
2023-05-02T15:48:19.320Z,3.63
2023-05-02T15:50:47.021Z,3.30
2023-05-02T15:53:15.694Z,2.87
2023-05-02T15:55:43.327Z,3.03
2023-05-02T15:58:10.052Z,3.47
2023-05-02T16:00:36.407Z,3.23
2023-05-02T16:03:04.110Z,3.07
2023-05-02T16:05:30.952Z,3.20
2023-05-02T16:07:57.253Z,3.10
2023-05-02T16:10:23.936Z,2.67
2023-05-02T16:12:50.253Z,3.73
2023-05-02T16:15:16.703Z,3.50
2023-05-02T16:17:43.160Z,3.37
2023-05-02T16:20:10.790Z,3.17
2023-05-02T16:22:39.059Z,3.30
2023-05-02T16:25:05.758Z,3.40
2023-05-02T16:27:33.308Z,2.93
2023-05-02T16:30:00.142Z,3.13
2023-05-02T16:32:28.100Z,3.13
2023-05-02T16:34:54.516Z,2.93
2023-05-02T16:37:20.907Z,3.53
2023-05-02T16:39:47.383Z,3.50
2023-05-02T16:42:13.680Z,3.00
2023-05-02T16:44:40.169Z,3.60
2023-05-02T16:47:08.038Z,3.50
2023-05-02T16:49:34.659Z,3.30
2023-05-02T16:52:01.056Z,3.47
2023-05-02T16:54:27.470Z,3.30
2023-05-02T16:56:53.877Z,4.00
2023-05-02T16:59:20.412Z,4.20
2023-05-02T17:01:46.780Z,4.00
2023-05-02T17:04:13.242Z,3.10
2023-05-02T17:06:39.636Z,2.90
2023-05-02T17:09:06.210Z,3.23
2023-05-02T17:11:32.714Z,3.00
2023-05-02T17:13:59.029Z,3.33
2023-05-02T17:16:25.500Z,3.13
2023-05-02T17:18:51.983Z,3.10
2023-05-02T17:21:18.379Z,3.20
2023-05-02T17:23:44.937Z,3.17
2023-05-02T17:26:14.928Z,3.53
2023-05-02T17:28:43.303Z,3.00
2023-05-02T17:31:10.543Z,3.27
2023-05-02T17:33:37.371Z,3.17
2023-05-02T17:36:04.843Z,2.83
2023-05-02T17:38:31.208Z,3.47
2023-05-02T17:40:57.724Z,3.97
2023-05-02T17:43:24.155Z,3.60
2023-05-02T17:45:50.625Z,3.73
2023-05-02T17:48:17.310Z,3.70
2023-05-02T17:50:44.059Z,3.30
2023-05-02T17:53:10.543Z,3.03
2023-05-02T17:55:37.626Z,2.93
2023-05-02T17:58:04.252Z,3.10
2023-05-02T18:00:30.650Z,3.40
2023-05-02T18:02:57.244Z,2.77
2023-05-02T18:05:26.285Z,3.10
2023-05-02T18:07:53.060Z,3.37
2023-05-02T18:10:19.509Z,3.07
2023-05-02T18:12:45.932Z,3.43
2023-05-02T18:15:12.308Z,2.97
2023-05-02T18:17:38.777Z,3.37
2023-05-02T18:20:07.240Z,3.37
2023-05-02T18:22:33.789Z,2.83
2023-05-02T18:25:00.455Z,2.90
2023-05-02T18:27:27.237Z,3.50
2023-05-02T18:29:54.419Z,3.07
2023-05-02T18:32:21.532Z,3.43
2023-05-02T18:34:48.380Z,3.43
2023-05-02T18:37:14.721Z,3.60
2023-05-02T18:39:41.076Z,3.93
2023-05-02T18:42:08.239Z,3.87
2023-05-02T18:44:34.619Z,3.27
2023-05-02T18:47:01.022Z,3.53
2023-05-02T18:49:27.464Z,3.40
2023-05-02T18:51:57.122Z,3.03
2023-05-02T18:54:24.183Z,3.53
2023-05-02T18:56:50.587Z,3.57
2023-05-02T18:59:17.756Z,3.30
2023-05-02T19:01:46.155Z,3.60
2023-05-02T19:04:12.717Z,3.30
2023-05-02T19:06:39.157Z,3.20
2023-05-02T19:09:05.594Z,3.80
2023-05-02T19:11:32.024Z,3.33
2023-05-02T19:14:00.507Z,3.10
2023-05-02T19:16:28.912Z,3.73
2023-05-02T19:18:56.925Z,4.10
2023-05-02T19:21:23.445Z,3.93
2023-05-02T19:23:50.390Z,3.83
2023-05-02T19:26:17.770Z,4.23
2023-05-02T19:28:44.957Z,4.17
2023-05-02T19:31:12.918Z,4.23
2023-05-02T19:33:40.615Z,4.47
2023-05-02T19:36:07.523Z,3.87
2023-05-02T19:38:34.798Z,3.47
2023-05-02T19:41:02.100Z,4.07
2023-05-02T19:43:28.625Z,4.07
2023-05-02T19:45:55.188Z,4.17
2023-05-02T19:48:22.844Z,3.77
2023-05-02T19:50:49.734Z,4.60
2023-05-02T19:53:16.104Z,4.60
2023-05-02T19:55:42.483Z,4.40
2023-05-02T19:58:08.805Z,4.37
2023-05-02T20:00:35.458Z,4.30
2023-05-02T20:03:02.333Z,5.97
2023-05-02T20:05:28.806Z,4.43
2023-05-02T20:07:55.418Z,4.20
2023-05-02T20:10:23.618Z,4.77
2023-05-02T20:12:50.013Z,3.80
2023-05-02T20:15:16.826Z,4.20
2023-05-02T20:17:43.338Z,4.37
2023-05-02T20:20:11.382Z,4.10
2023-05-02T20:22:41.029Z,4.40
2023-05-02T20:25:17.428Z,4.87
2023-05-02T20:27:43.851Z,4.23
2023-05-02T20:30:10.656Z,4.73
2023-05-02T20:32:37.229Z,4.30
2023-05-02T20:35:03.734Z,4.50
2023-05-02T20:37:30.411Z,4.87
2023-05-02T20:39:56.937Z,5.07
2023-05-02T20:42:25.662Z,4.90
2023-05-02T20:44:57.758Z,4.83
2023-05-02T20:47:30.019Z,4.40
2023-05-02T20:49:57.664Z,4.70
2023-05-02T20:52:24.056Z,4.77
2023-05-02T20:54:53.663Z,5.30
2023-05-02T20:57:20.127Z,5.07
2023-05-02T20:59:46.697Z,4.30
2023-05-02T21:02:13.190Z,5.37
2023-05-02T21:04:41.014Z,4.57
2023-05-02T21:07:07.758Z,4.50
2023-05-02T21:09:34.133Z,4.63
2023-05-02T21:12:00.723Z,4.83
2023-05-02T21:14:27.066Z,4.57
2023-05-02T21:16:53.634Z,5.37
2023-05-02T21:19:20.309Z,4.77
2023-05-02T21:21:47.519Z,4.83
2023-05-02T21:24:14.644Z,4.80
2023-05-02T21:26:41.509Z,4.50
2023-05-02T21:29:08.132Z,5.43
2023-05-02T21:31:34.682Z,5.40
2023-05-02T21:34:01.010Z,5.07
2023-05-02T21:36:27.376Z,5.30
2023-05-02T21:38:53.934Z,5.23
2023-05-02T21:41:20.739Z,5.20
2023-05-02T21:43:47.192Z,4.97
2023-05-02T21:46:13.810Z,4.87
2023-05-02T21:48:40.210Z,5.07
2023-05-02T21:51:07.930Z,5.13
2023-05-02T21:53:34.310Z,4.87
2023-05-02T21:56:00.737Z,5.80
2023-05-02T21:58:28.696Z,6.90
2023-05-02T22:00:55.370Z,5.80
2023-05-02T22:03:23.290Z,5.30
2023-05-02T22:05:49.825Z,5.40
2023-05-02T22:08:16.505Z,5.97
2023-05-02T22:10:44.117Z,5.00
2023-05-02T22:13:12.574Z,5.67
2023-05-02T22:15:45.462Z,5.17
2023-05-02T22:18:13.781Z,5.30
2023-05-02T22:20:44.570Z,5.70
2023-05-02T22:23:11.835Z,4.90
2023-05-02T22:25:41.366Z,4.90
2023-05-02T22:28:11.328Z,5.53
2023-05-02T22:30:38.988Z,5.30
2023-05-02T22:33:06.492Z,5.40
2023-05-02T22:35:33.024Z,4.60
2023-05-02T22:38:01.568Z,5.20
2023-05-02T22:40:30.291Z,4.87
2023-05-02T22:42:57.165Z,4.70
2023-05-02T22:45:23.700Z,5.30
2023-05-02T22:47:51.277Z,4.80
2023-05-02T22:50:17.865Z,4.47
2023-05-02T22:52:44.474Z,4.90
2023-05-02T22:55:11.661Z,5.30
2023-05-02T22:57:39.025Z,5.73
2023-05-02T23:00:07.407Z,4.90
2023-05-02T23:02:33.869Z,5.07
2023-05-02T23:05:01.031Z,4.70
2023-05-02T23:07:27.526Z,6.47
2023-05-02T23:09:53.963Z,5.70
2023-05-02T23:12:20.406Z,4.77
2023-05-02T23:14:46.754Z,5.17
2023-05-02T23:17:13.123Z,4.90
2023-05-02T23:19:39.552Z,5.50
2023-05-02T23:22:06.022Z,4.50
2023-05-02T23:24:32.674Z,4.30
2023-05-02T23:26:59.082Z,5.10
2023-05-02T23:29:25.646Z,4.60
2023-05-02T23:31:54.264Z,4.30
2023-05-02T23:34:21.872Z,4.77
2023-05-02T23:36:48.696Z,4.30
2023-05-02T23:39:15.563Z,4.07
2023-05-02T23:41:42.362Z,4.93
2023-05-02T23:44:08.766Z,4.60
2023-05-02T23:46:35.260Z,4.37
2023-05-02T23:49:01.744Z,4.30
2023-05-02T23:51:28.427Z,4.60
2023-05-02T23:53:54.849Z,4.17
2023-05-02T23:56:21.296Z,4.50
2023-05-02T23:58:47.710Z,4.60
